KRHV 251647Z 29006KT 10SM FEW025 BKN050 12/09 A3019